This is the latest recevied weather packets stored in our database for station/object W4KAB. If no packets are shown the sender has not sent any weather packets the latest 10 day(s).
| Time | Temp. | Humidity | Pressure | Rain* | Wind** | Luminosity | Snow |
|---|---|---|---|---|---|---|---|
| 1777835234 | 20° C | 27% | 1018.7 hPa | 0 mm | - | 715 W/m² | - |
| 1777834930 | 20° C | 34% | 1018.9 hPa | 0 mm | - | 734 W/m² | - |
| 1777834628 | 19.44° C | 29% | 1018.7 hPa | 0 mm | - | 745 W/m² | - |
| 1777834323 | 19.44° C | 29% | 1018.9 hPa | 0 mm | - | 748 W/m² | - |
| 1777834018 | 19.44° C | 28% | 1019.1 hPa | 0 mm | - | 753 W/m² | - |
| 1777833714 | 17.78° C | 28% | 1019 hPa | 0 mm | - | 740 W/m² | - |
| 1777833410 | 19.44° C | 28% | 1019.4 hPa | 0 mm | - | 757 W/m² | - |
| 1777833108 | 18.89° C | 32% | 1019.4 hPa | 0 mm | - | 776 W/m² | - |
| 1777832806 | 19.44° C | 29% | 1019.4 hPa | 0 mm | - | 771 W/m² | - |
| 1777832504 | 17.78° C | 35% | 1019.4 hPa | 0 mm | - | 752 W/m² | - |
| 1777832201 | 17.78° C | 29% | 1019.6 hPa | 0 mm | - | 757 W/m² | - |
| 1777831898 | 18.33° C | 29% | 1019.7 hPa | 0 mm | - | 747 W/m² | - |
| 1777831594 | 17.78° C | 32% | 1019.5 hPa | 0 mm | - | 756 W/m² | - |
| 1777831293 | 17.78° C | 32% | 1019.8 hPa | 0 mm | - | 779 W/m² | - |
| 1777830989 | 17.78° C | 29% | 1019.7 hPa | 0 mm | - | 773 W/m² | - |
| 1777830686 | 18.33° C | 28% | 1019.8 hPa | 0 mm | - | 766 W/m² | - |
| 1777830383 | 18.33° C | 31% | 1019.9 hPa | 0 mm | - | 772 W/m² | - |
| 1777830080 | 17.78° C | 29% | 1019.9 hPa | 0 mm | - | 745 W/m² | - |
| 1777829775 | 17.78° C | 33% | 1020 hPa | 0 mm | - | 734 W/m² | - |
| 1777829472 | 18.33° C | 34% | 1020.2 hPa | 0 mm | - | 759 W/m² | - |
| 1777829169 | 17.78° C | 32% | 1020.3 hPa | 0 mm | - | 757 W/m² | - |
| 1777828866 | 17.22° C | 32% | 1020.2 hPa | 0 mm | - | 763 W/m² | - |
| 1777828563 | 17.22° C | 30% | 1020.4 hPa | 0 mm | - | 757 W/m² | - |
| 1777828260 | 17.22° C | 31% | 1020.5 hPa | 0 mm | - | 757 W/m² | - |
| 1777827956 | 17.22° C | 31% | 1020.4 hPa | 0 mm | - | 787 W/m² | - |
* Rain latest hour (hover to see other rain measurements)
** Current wind speed in m/s (hover to see current wind gust speed)